Time;durP1;ratioP1;P1;durP2;ratioP2;P2;SDS_P1;SDS_P2;PMS_P1;PMS_P2;Temp;Humidity;BMP_temperature;BMP_pressure;BME280_temperature;BME280_humidity;BME280_pressure;Samples;Min_cycle;Max_cycle;Signal;HPM_P1;HPM_P2
2023/04/12 00:02:00;;;;;;;6.23;2.50;;;12.90;40.70;;;;;;20706;6760;117478;-74
2023/04/12 00:04:35;;;;;;;2.80;2.50;;;12.80;41.00;;;;;;20741;6775;119904;-74
2023/04/12 00:07:12;;;;;;;3.13;2.80;;;12.60;41.30;;;;;;20500;6775;336253;-74
2023/04/12 00:09:47;;;;;;;4.20;2.70;;;12.50;41.20;;;;;;20580;6760;276450;-74
2023/04/12 00:12:23;;;;;;;4.70;2.63;;;12.90;41.00;;;;;;20489;6760;308450;-74
2023/04/12 00:15:00;;;;;;;3.03;2.43;;;13.10;41.50;;;;;;20810;6760;117146;-74
2023/04/12 00:17:35;;;;;;;4.80;2.60;;;12.90;42.70;;;;;;20525;6774;307648;-74
2023/04/12 00:20:11;;;;;;;2.77;2.33;;;12.90;43.40;;;;;;20810;6760;116958;-74
2023/04/12 00:22:46;;;;;;;3.53;2.53;;;12.70;43.00;;;;;;20493;6760;308179;-74
2023/04/12 00:25:21;;;;;;;2.47;2.27;;;12.70;43.40;;;;;;20807;6756;117336;-74
2023/04/12 00:27:57;;;;;;;4.10;2.50;;;12.60;43.80;;;;;;20796;6760;117130;-73
2023/04/12 00:30:35;;;;;;;3.17;2.17;;;12.30;44.40;;;;;;20800;6760;117232;-74
2023/04/12 00:33:08;;;;;;;6.67;2.37;;;12.00;45.00;;;;;;20617;6760;118482;-74
2023/04/12 00:35:45;;;;;;;6.23;2.93;;;12.00;47.30;;;;;;20606;6756;281497;-75
2023/04/12 00:38:20;;;;;;;3.37;2.42;;;12.00;47.30;;;;;;20599;6759;335734;-74
2023/04/12 00:40:57;;;;;;;3.37;2.65;;;12.70;48.10;;;;;;20600;6760;276421;-73
2023/04/12 00:43:34;;;;;;;3.57;2.30;;;12.50;47.10;;;;;;20811;6755;117568;-74
2023/04/12 00:46:11;;;;;;;3.57;2.70;;;12.50;47.10;;;;;;20598;6760;306014;-74
2023/04/12 00:48:47;;;;;;;3.10;2.33;;;12.50;47.80;;;;;;20811;6760;117566;-74
2023/04/12 00:51:21;;;;;;;2.60;2.40;;;12.40;47.80;;;;;;20770;6760;117755;-74
2023/04/12 00:53:56;;;;;;;2.83;2.20;;;12.10;48.10;;;;;;20820;6760;117107;-76
2023/04/12 00:56:32;;;;;;;3.45;2.37;;;11.80;48.50;;;;;;20609;6760;334743;-73
2023/04/12 00:59:09;;;;;;;3.23;2.03;;;12.00;49.80;;;;;;20844;6745;117037;-73
2023/04/12 01:01:44;;;;;;;2.20;1.90;;;11.90;49.40;;;;;;20797;6745;117518;-73
2023/04/12 01:04:22;;;;;;;3.17;2.37;;;11.70;49.60;;;;;;20845;6745;117009;-73
2023/04/12 01:07:18;;;;;;;3.73;2.17;;;11.60;50.00;;;;;;20800;6760;117192;-73
2023/04/12 01:09:58;;;;;;;4.43;2.60;;;11.70;51.40;;;;;;20589;6760;296195;-79
2023/04/12 01:12:40;;;;;;;4.10;2.30;;;11.70;51.40;;;;;;20589;6778;117508;-76
2023/04/12 01:15:15;;;;;;;4.03;2.10;;;11.70;50.90;;;;;;20769;6777;118271;-75
2023/04/12 01:18:01;;;;;;;4.93;2.53;;;11.50;51.00;;;;;;20784;6771;117053;-75
2023/04/12 01:20:38;;;;;;;1.70;1.60;;;11.40;51.30;;;;;;20782;6771;117190;-76
2023/04/12 01:23:32;;;;;;;3.80;2.45;;;11.40;52.70;;;;;;20371;6771;309626;-76
2023/04/12 01:26:22;;;;;;;2.67;2.03;;;11.40;52.70;;;;;;20819;6754;117611;-75
2023/04/12 01:28:58;;;;;;;3.13;2.03;;;11.40;52.20;;;;;;20778;6768;116998;-76
2023/04/12 01:31:34;;;;;;;2.30;2.10;;;11.20;52.40;;;;;;20845;6739;118863;-75
2023/04/12 01:34:12;;;;;;;3.10;1.93;;;11.10;52.60;;;;;;20904;6739;117243;-74
2023/04/12 01:36:45;;;;;;;1.77;1.60;;;11.00;52.80;;;;;;20907;6739;117035;-74
2023/04/12 01:39:21;;;;;;;4.53;2.42;;;11.20;53.20;;;;;;20674;6739;311557;-74
2023/04/12 01:41:57;;;;;;;2.67;1.83;;;11.20;53.20;;;;;;20831;6739;117353;-74
2023/04/12 01:44:32;;;;;;;4.07;2.10;;;11.30;52.80;;;;;;20772;6754;117117;-74
2023/04/12 01:47:08;;;;;;;2.60;2.30;;;11.20;52.90;;;;;;20750;6769;117578;-75
2023/04/12 01:50:03;;;;;;;3.87;2.70;;;11.00;53.10;;;;;;20567;6767;341630;-74
2023/04/12 01:52:40;;;;;;;2.83;2.03;;;11.20;53.90;;;;;;20672;6762;117367;-75
2023/04/12 01:55:16;;;;;;;2.60;2.40;;;11.20;53.50;;;;;;20817;6753;117818;-76
2023/04/12 01:57:51;;;;;;;3.37;2.00;;;11.00;53.70;;;;;;20800;6762;117044;-75
2023/04/12 02:00:27;;;;;;;3.60;2.28;;;10.90;54.10;;;;;;20595;6762;306764;-75
2023/04/12 02:03:05;;;;;;;2.80;2.10;;;11.50;54.10;;;;;;20437;6762;279552;-75
2023/04/12 02:05:40;;;;;;;2.50;2.27;;;11.50;54.10;;;;;;20826;6757;117287;-75
2023/04/12 02:08:16;;;;;;;3.25;2.47;;;11.50;53.70;;;;;;20609;6754;339930;-75
2023/04/12 02:10:53;;;;;;;4.47;2.10;;;11.50;53.90;;;;;;20819;6757;118713;-75
2023/04/12 02:13:28;;;;;;;2.97;2.13;;;11.50;53.90;;;;;;20802;6757;119619;-75
2023/04/12 02:16:03;;;;;;;4.13;2.50;;;11.20;54.10;;;;;;20823;6757;119453;-75
2023/04/12 02:18:40;;;;;;;3.78;2.42;;;11.00;54.50;;;;;;20602;6757;335208;-75
2023/04/12 02:21:15;;;;;;;3.83;2.60;;;11.20;55.30;;;;;;20563;6757;308152;-76
2023/04/12 02:23:50;;;;;;;3.03;2.60;;;11.60;54.70;;;;;;20601;6758;281507;-75
2023/04/12 02:26:26;;;;;;;4.30;2.72;;;11.80;54.40;;;;;;20634;6749;335208;-75
2023/04/12 02:29:01;;;;;;;3.40;2.47;;;12.00;54.10;;;;;;20850;6749;117136;-75
2023/04/12 02:31:37;;;;;;;2.85;2.60;;;11.80;54.00;;;;;;20545;6754;283220;-75
2023/04/12 02:34:16;;;;;;;3.33;2.60;;;11.80;54.10;;;;;;20678;6739;276238;-75
2023/04/12 02:36:49;;;;;;;3.10;2.50;;;12.20;53.30;;;;;;20662;6739;305676;-75
2023/04/12 02:39:24;;;;;;;3.47;2.33;;;12.20;53.30;;;;;;20859;6739;117868;-75
2023/04/12 02:42:00;;;;;;;2.73;2.10;;;11.90;53.30;;;;;;20794;6739;117518;-75
2023/04/12 02:44:35;;;;;;;3.03;2.30;;;11.50;53.90;;;;;;20627;6754;286651;-75
2023/04/12 02:47:11;;;;;;;3.45;2.55;;;11.60;54.40;;;;;;20540;6768;306296;-75
2023/04/12 02:49:46;;;;;;;2.57;2.30;;;11.80;53.70;;;;;;20655;6739;276467;-75
2023/04/12 02:52:22;;;;;;;2.90;2.60;;;12.10;53.30;;;;;;20487;6753;338457;-75
2023/04/12 02:54:58;;;;;;;3.33;2.10;;;12.30;53.00;;;;;;20842;6749;117017;-75
2023/04/12 02:57:33;;;;;;;2.43;2.10;;;12.00;53.20;;;;;;20825;6749;117967;-75
2023/04/12 03:00:15;;;;;;;2.78;2.50;;;11.60;53.80;;;;;;20597;6764;335148;-75
2023/04/12 03:02:50;;;;;;;4.00;2.87;;;11.70;54.60;;;;;;20483;6754;308736;-75
2023/04/12 03:05:24;;;;;;;2.50;2.30;;;11.90;53.70;;;;;;20858;6739;117223;-75
2023/04/12 03:07:59;;;;;;;3.20;2.33;;;11.80;53.90;;;;;;20621;6754;276832;-75
2023/04/12 03:10:35;;;;;;;2.87;1.90;;;11.80;54.00;;;;;;20791;6754;120009;-75
2023/04/12 03:13:10;;;;;;;2.07;1.93;;;11.70;54.10;;;;;;20551;6757;117651;-77
2023/04/12 03:15:48;;;;;;;2.67;2.33;;;11.10;55.00;;;;;;20840;6749;122245;-77
2023/04/12 03:18:22;;;;;;;3.10;2.27;;;11.10;55.10;;;;;;20831;6754;117015;-76
2023/04/12 03:21:01;;;;;;;2.40;2.20;;;10.90;55.40;;;;;;20864;6739;117054;-76
2023/04/12 03:23:36;;;;;;;2.67;2.40;;;10.70;56.10;;;;;;20807;6754;120059;-76
2023/04/12 03:26:11;;;;;;;2.50;2.30;;;10.60;56.00;;;;;;20608;6754;340833;-76
2023/04/12 03:28:48;;;;;;;2.30;2.10;;;10.90;56.10;;;;;;20654;6739;306548;-81
2023/04/12 03:31:27;;;;;;;2.20;2.00;;;11.40;55.50;;;;;;20816;6739;117774;-78
2023/04/12 03:33:59;;;;;;;2.45;2.25;;;11.30;55.00;;;;;;20612;6758;316350;-78
2023/04/12 03:36:37;;;;;;;2.43;2.07;;;11.40;55.00;;;;;;20643;6749;306648;-78
2023/04/12 03:39:12;;;;;;;3.57;2.10;;;11.70;54.50;;;;;;20840;6749;119002;-78
2023/04/12 03:41:47;;;;;;;3.93;2.60;;;11.50;54.40;;;;;;20774;6754;120502;-78
2023/04/12 03:44:25;;;;;;;3.55;2.70;;;11.20;55.00;;;;;;20575;6769;307784;-78
2023/04/12 03:46:58;;;;;;;2.83;2.30;;;11.20;55.50;;;;;;20841;6754;117118;-78
2023/04/12 03:49:37;;;;;;;2.03;1.83;;;11.10;55.40;;;;;;20760;6754;117072;-78
2023/04/12 03:52:11;;;;;;;1.40;1.30;;;10.80;55.70;;;;;;20743;6754;117439;-81
2023/04/12 03:54:46;;;;;;;1.70;1.40;;;10.60;56.20;;;;;;20869;6739;117471;-80
2023/04/12 03:57:23;;;;;;;1.70;1.60;;;10.30;57.10;;;;;;20853;6739;117382;-81
2023/04/12 03:59:58;;;;;;;2.43;1.50;;;10.20;57.00;;;;;;20864;6739;117526;-78
2023/04/12 04:02:34;;;;;;;1.47;1.37;;;10.20;57.40;;;;;;20755;6739;117653;-78
2023/04/12 04:05:11;;;;;;;3.07;1.50;;;10.10;57.60;;;;;;20848;6739;118515;-77
2023/04/12 04:07:45;;;;;;;2.10;1.90;;;10.00;57.70;;;;;;20656;6739;306632;-77
2023/04/12 04:10:21;;;;;;;1.40;1.30;;;10.30;57.60;;;;;;20872;6739;116949;-77
2023/04/12 04:12:56;;;;;;;1.80;1.70;;;10.40;57.20;;;;;;20507;6738;308043;-77
2023/04/12 04:15:35;;;;;;;1.90;1.80;;;10.70;56.70;;;;;;20850;6738;116897;-77
2023/04/12 04:18:07;;;;;;;1.77;1.50;;;10.70;56.50;;;;;;20869;6739;117510;-77
2023/04/12 04:20:43;;;;;;;1.87;1.75;;;10.50;56.90;;;;;;20655;6739;336376;-77
2023/04/12 04:23:18;;;;;;;2.67;1.90;;;10.70;57.40;;;;;;20664;6795;120766;-77
2023/04/12 04:25:54;;;;;;;2.00;1.90;;;10.60;57.10;;;;;;20878;6739;117586;-78
2023/04/12 04:28:32;;;;;;;2.08;1.98;;;10.70;57.60;;;;;;20661;6739;304684;-77
2023/04/12 04:31:06;;;;;;;1.93;1.90;;;10.60;57.50;;;;;;20845;6739;118217;-77
2023/04/12 04:33:42;;;;;;;2.30;2.20;;;10.60;57.30;;;;;;20881;6739;117215;-77
2023/04/12 04:36:17;;;;;;;2.65;2.40;;;10.50;57.70;;;;;;20660;6739;340088;-77
2023/04/12 04:38:53;;;;;;;2.90;2.70;;;10.60;57.90;;;;;;20662;6739;279856;-77
2023/04/12 04:41:28;;;;;;;2.30;2.20;;;11.00;57.20;;;;;;20804;6739;117506;-77
2023/04/12 04:44:08;;;;;;;2.13;1.93;;;10.90;57.00;;;;;;20815;6754;117079;-78
2023/04/12 04:46:40;;;;;;;2.75;2.50;;;10.70;57.50;;;;;;20577;6768;307695;-77
2023/04/12 04:49:16;;;;;;;2.37;2.10;;;10.80;58.10;;;;;;20800;6772;118128;-79
2023/04/12 04:51:52;;;;;;;2.30;2.20;;;10.80;58.00;;;;;;20718;6764;118337;-78
2023/04/12 04:54:28;;;;;;;2.50;2.30;;;10.60;58.50;;;;;;20584;6764;297104;-78
2023/04/12 04:57:06;;;;;;;2.65;2.45;;;10.80;58.70;;;;;;20565;6768;308732;-78
2023/04/12 04:59:40;;;;;;;2.55;2.35;;;11.10;57.80;;;;;;20539;6777;287513;-80
2023/04/12 05:02:16;;;;;;;2.27;2.17;;;11.50;56.80;;;;;;20699;6764;117974;-78
2023/04/12 05:04:55;;;;;;;2.45;2.30;;;11.30;56.70;;;;;;20582;6764;307896;-78
2023/04/12 05:07:27;;;;;;;2.27;2.07;;;11.40;57.00;;;;;;20760;6764;121091;-77
2023/04/12 05:10:03;;;;;;;2.40;2.20;;;11.20;57.00;;;;;;20811;6760;117635;-77
2023/04/12 05:12:39;;;;;;;2.35;2.15;;;11.00;57.30;;;;;;20534;6737;337640;-78
2023/04/12 05:15:17;;;;;;;2.30;2.10;;;11.00;57.40;;;;;;20868;6738;117447;-77
2023/04/12 05:17:53;;;;;;;2.47;2.30;;;10.90;57.30;;;;;;20626;6752;292399;-78
2023/04/12 05:20:30;;;;;;;2.10;2.00;;;11.40;56.90;;;;;;20633;6752;277655;-77
2023/04/12 05:23:05;;;;;;;2.72;2.50;;;11.30;56.70;;;;;;20465;6751;308299;-79
2023/04/12 05:25:45;;;;;;;2.50;2.30;;;11.70;55.10;;;;;;20635;6763;307173;-78
2023/04/12 05:28:21;;;;;;;2.58;2.37;;;11.70;55.60;;;;;;20589;6778;306305;-78
2023/04/12 05:30:57;;;;;;;3.03;2.83;;;11.80;55.40;;;;;;20641;6737;306741;-80
2023/04/12 05:33:35;;;;;;;2.40;2.30;;;11.90;55.20;;;;;;20598;6761;304297;-80
2023/04/12 05:36:10;;;;;;;2.57;2.37;;;12.00;55.30;;;;;;20580;6765;280469;-81
2023/04/12 05:38:46;;;;;;;2.73;2.53;;;12.10;55.20;;;;;;20543;6778;277369;-77
2023/04/12 05:41:32;;;;;;;;;;;;;;;;;;;;;
2023/04/12 05:43:58;;;;;;;2.50;2.30;;;11.80;56.60;;;;;;20521;6778;343709;-76
2023/04/12 05:46:35;;;;;;;2.73;1.80;;;11.70;56.10;;;;;;20803;6760;122202;-76
2023/04/12 05:49:09;;;;;;;1.77;1.57;;;11.60;56.40;;;;;;20734;6775;118358;-76
2023/04/12 05:51:47;;;;;;;1.80;1.80;;;11.20;57.10;;;;;;20706;6777;118867;-78
2023/04/12 05:54:21;;;;;;;2.00;1.90;;;11.00;57.90;;;;;;20538;6778;345073;-78
2023/04/12 05:56:56;;;;;;;2.10;1.57;;;11.10;58.50;;;;;;20778;6772;117972;-76
2023/04/12 05:59:33;;;;;;;2.00;1.90;;;11.30;58.60;;;;;;20608;6751;306517;-77
2023/04/12 06:02:09;;;;;;;1.80;1.70;;;11.30;58.00;;;;;;20555;6745;307901;-76
2023/04/12 06:04:46;;;;;;;1.60;1.50;;;11.60;57.10;;;;;;20875;6741;117107;-75
2023/04/12 06:07:20;;;;;;;1.77;1.67;;;11.50;56.40;;;;;;20627;6745;306923;-73
2023/04/12 06:09:55;;;;;;;2.63;1.80;;;11.60;56.90;;;;;;20698;6730;306889;-73
2023/04/12 06:12:31;;;;;;;1.33;1.23;;;11.80;56.80;;;;;;20781;6730;118445;-75
2023/04/12 06:15:06;;;;;;;1.60;1.50;;;11.70;57.00;;;;;;20654;6730;305601;-74
2023/04/12 06:17:42;;;;;;;2.30;1.60;;;11.70;56.80;;;;;;20693;6730;306968;-76
2023/04/12 06:20:18;;;;;;;1.67;1.57;;;11.90;56.60;;;;;;20674;6741;277827;-74
2023/04/12 06:22:53;;;;;;;1.53;1.33;;;12.10;56.40;;;;;;20661;6766;117420;-75
2023/04/12 06:25:30;;;;;;;1.52;1.42;;;11.90;56.80;;;;;;20577;6760;306651;-75
2023/04/12 06:28:05;;;;;;;1.30;1.20;;;11.90;56.80;;;;;;20760;6775;117647;-75
2023/04/12 06:30:41;;;;;;;1.10;1.10;;;11.70;56.90;;;;;;20867;6745;117149;-75
2023/04/12 06:33:16;;;;;;;1.17;0.80;;;11.50;57.60;;;;;;20612;6745;117616;-76
2023/04/12 06:35:53;;;;;;;1.40;1.30;;;11.40;58.20;;;;;;20547;6778;307100;-75
2023/04/12 06:38:28;;;;;;;1.07;1.07;;;11.40;58.10;;;;;;20801;6769;122933;-75
2023/04/12 06:41:04;;;;;;;1.10;1.10;;;11.40;58.00;;;;;;20844;6760;117016;-75
2023/04/12 06:43:40;;;;;;;1.20;1.00;;;11.10;58.90;;;;;;20854;6760;117164;-75
2023/04/12 06:46:17;;;;;;;46.70;41.13;;;11.10;58.80;;;;;;20852;6760;116839;-77
2023/04/12 06:48:53;;;;;;;1.77;1.67;;;11.00;59.30;;;;;;20871;6745;117748;-78
2023/04/12 06:51:29;;;;;;;0.87;0.87;;;11.00;59.60;;;;;;20791;6745;119988;-77
2023/04/12 06:54:05;;;;;;;1.30;1.20;;;11.20;60.00;;;;;;20653;6745;307854;-77
2023/04/12 06:56:40;;;;;;;1.00;1.00;;;11.20;59.90;;;;;;20863;6745;116939;-77
2023/04/12 06:59:16;;;;;;;1.50;1.40;;;11.30;59.60;;;;;;20626;6745;309630;-78
2023/04/12 07:01:51;;;;;;;1.10;1.07;;;11.60;59.40;;;;;;20800;6745;120738;-76
2023/04/12 07:04:27;;;;;;;2.73;1.07;;;11.60;59.20;;;;;;20763;6775;117713;-76
2023/04/12 07:07:03;;;;;;;1.20;1.12;;;11.50;59.50;;;;;;20538;6774;307777;-77
2023/04/12 07:09:38;;;;;;;1.23;1.07;;;11.70;58.80;;;;;;20796;6760;117045;-76
2023/04/12 07:12:16;;;;;;;1.83;1.70;;;11.70;58.60;;;;;;20489;6760;338773;-76
2023/04/12 07:14:52;;;;;;;2.90;2.70;;;11.90;57.80;;;;;;20590;6760;285622;-76
2023/04/12 07:17:28;;;;;;;1.55;1.45;;;12.50;57.10;;;;;;20621;6745;277026;-76
2023/04/12 07:20:04;;;;;;;1.37;1.10;;;12.50;57.10;;;;;;20600;6760;306217;-76
2023/04/12 07:22:40;;;;;;;1.10;1.00;;;12.80;56.30;;;;;;20432;6775;279196;-75
2023/04/12 07:25:15;;;;;;;1.10;1.00;;;12.90;55.30;;;;;;20848;6745;120695;-73
2023/04/12 07:27:51;;;;;;;1.17;1.10;;;12.40;56.60;;;;;;20866;6745;116934;-72
2023/04/12 07:30:27;;;;;;;1.53;1.27;;;12.40;56.60;;;;;;20816;6760;117034;-74
2023/04/12 07:33:04;;;;;;;3.85;3.65;;;12.20;57.40;;;;;;20444;6760;308359;-75
2023/04/12 07:35:39;;;;;;;1.48;1.40;;;12.30;56.90;;;;;;20599;6760;295075;-75
2023/04/12 07:38:15;;;;;;;1.83;1.60;;;12.70;56.40;;;;;;20799;6760;117461;-75
2023/04/12 07:40:50;;;;;;;1.23;1.13;;;12.70;56.60;;;;;;20752;6778;117074;-73
2023/04/12 07:43:26;;;;;;;1.90;1.80;;;12.50;57.30;;;;;;20520;6782;325296;-73
2023/04/12 07:46:06;;;;;;;1.33;1.33;;;12.60;57.00;;;;;;20797;6760;117103;-73
2023/04/12 07:48:37;;;;;;;1.62;1.52;;;12.70;57.00;;;;;;20590;6759;306675;-73
2023/04/12 07:51:13;;;;;;;1.83;1.70;;;12.80;56.30;;;;;;20509;6775;284183;-73
2023/04/12 07:53:49;;;;;;;1.10;1.07;;;13.10;56.20;;;;;;20807;6760;117205;-72
2023/04/12 07:56:24;;;;;;;0.83;0.83;;;13.00;56.30;;;;;;20796;6760;117431;-73
2023/04/12 07:59:01;;;;;;;1.10;1.10;;;12.80;56.90;;;;;;20849;6745;117432;-72
2023/04/12 08:01:37;;;;;;;1.25;1.25;;;12.70;57.70;;;;;;20567;6745;309409;-72
2023/04/12 08:04:12;;;;;;;1.20;1.10;;;12.80;56.50;;;;;;20812;6760;117072;-73
2023/04/12 08:06:48;;;;;;;1.20;1.10;;;12.90;56.60;;;;;;20854;6745;118176;-72
2023/04/12 08:09:23;;;;;;;1.00;1.00;;;12.80;57.00;;;;;;20788;6760;122451;-72
2023/04/12 08:12:00;;;;;;;1.23;1.10;;;12.90;57.50;;;;;;20508;6760;344554;-72
2023/04/12 08:14:35;;;;;;;1.20;1.03;;;12.90;57.50;;;;;;20847;6745;117111;-72
2023/04/12 08:17:11;;;;;;;1.70;1.60;;;13.00;57.50;;;;;;20776;6762;126802;-70
2023/04/12 08:19:46;;;;;;;1.30;1.20;;;13.00;57.80;;;;;;20808;6760;117227;-69
2023/04/12 08:22:22;;;;;;;1.30;1.20;;;12.80;57.90;;;;;;20491;6760;338370;-70
2023/04/12 08:24:57;;;;;;;1.13;1.00;;;13.10;57.00;;;;;;20812;6760;117050;-69
2023/04/12 08:27:34;;;;;;;1.35;1.23;;;13.40;56.80;;;;;;20579;6760;304610;-69
2023/04/12 08:30:10;;;;;;;1.53;1.20;;;13.40;56.60;;;;;;20603;6760;276773;-70
2023/04/12 08:32:45;;;;;;;1.20;1.03;;;13.80;55.80;;;;;;20654;6764;122289;-72
2023/04/12 08:35:24;;;;;;;1.60;1.35;;;13.90;56.30;;;;;;20582;6756;298899;-69
2023/04/12 08:38:05;;;;;;;2.03;1.37;;;14.10;55.80;;;;;;20772;6771;117146;-70
2023/04/12 08:40:35;;;;;;;1.70;1.27;;;14.10;55.90;;;;;;20550;6774;304283;-70
2023/04/12 08:43:10;;;;;;;1.00;1.00;;;14.30;53.60;;;;;;20588;6769;117820;-69
2023/04/12 08:45:46;;;;;;;1.70;1.00;;;14.30;54.20;;;;;;20816;6756;117342;-69
2023/04/12 08:48:22;;;;;;;1.17;0.93;;;14.10;54.90;;;;;;20807;6756;120757;-72
2023/04/12 08:50:57;;;;;;;1.30;1.20;;;13.90;55.50;;;;;;20525;6756;277638;-69
2023/04/12 08:53:33;;;;;;;1.77;1.10;;;14.10;54.90;;;;;;20732;6754;124179;-69
2023/04/12 08:56:09;;;;;;;1.60;1.45;;;14.20;55.20;;;;;;20584;6754;309070;-69
2023/04/12 08:58:44;;;;;;;1.53;1.43;;;14.40;53.50;;;;;;20565;6759;310800;-69
2023/04/12 09:01:20;;;;;;;1.50;1.40;;;15.00;52.80;;;;;;20588;6745;314264;-70
2023/04/12 09:03:56;;;;;;;1.40;1.30;;;14.90;52.70;;;;;;20800;6760;116988;-69
2023/04/12 09:06:31;;;;;;;1.13;1.13;;;14.90;53.30;;;;;;20813;6760;117433;-70
2023/04/12 09:09:10;;;;;;;1.48;1.37;;;14.60;54.10;;;;;;20632;6745;304963;-71
2023/04/12 09:11:48;;;;;;;2.07;1.60;;;14.70;53.20;;;;;;20771;6760;117965;-73
2023/04/12 09:14:22;;;;;;;2.08;1.90;;;14.80;53.40;;;;;;20602;6760;305570;-70
2023/04/12 09:17:01;;;;;;;2.30;1.83;;;14.80;53.30;;;;;;20813;6760;117049;-71
2023/04/12 09:19:33;;;;;;;2.70;2.53;;;14.80;54.00;;;;;;20842;6745;117373;-72
2023/04/12 09:22:09;;;;;;;2.30;2.10;;;14.60;54.70;;;;;;20554;6745;307760;-73
2023/04/12 09:24:48;;;;;;;3.33;3.13;;;14.80;54.70;;;;;;20850;6745;116987;-72
2023/04/12 09:27:20;;;;;;;3.97;3.60;;;14.90;55.20;;;;;;20779;6760;118034;-72
2023/04/12 09:30:06;;;;;;;4.72;4.43;;;15.00;56.80;;;;;;20598;6760;306244;-74
2023/04/12 09:32:42;;;;;;;6.90;6.30;;;15.00;56.80;;;;;;20684;6759;117487;-72
2023/04/12 09:35:21;;;;;;;2.13;2.03;;;15.10;56.90;;;;;;20809;6756;118182;-74
2023/04/12 09:37:56;;;;;;;3.80;3.50;;;15.00;57.30;;;;;;20588;6760;277751;-74
2023/04/12 09:40:35;;;;;;;2.40;2.30;;;15.20;56.00;;;;;;20808;6760;120827;-74
2023/04/12 09:43:09;;;;;;;2.27;1.93;;;15.20;56.00;;;;;;20576;6775;117647;-76
2023/04/12 09:45:49;;;;;;;3.93;3.63;;;15.10;56.80;;;;;;20798;6760;118384;-75
2023/04/12 09:48:25;;;;;;;4.50;4.20;;;15.00;57.00;;;;;;20594;6760;277647;-77
2023/04/12 09:50:57;;;;;;;2.42;2.22;;;15.20;57.50;;;;;;20520;6778;336401;-77
2023/04/12 09:53:33;;;;;;;6.07;5.53;;;15.60;55.10;;;;;;20814;6756;117139;-78
2023/04/12 09:56:08;;;;;;;4.10;3.78;;;15.70;55.60;;;;;;20635;6747;336919;-76
2023/04/12 09:58:45;;;;;;;3.03;2.83;;;15.90;54.40;;;;;;20947;6730;117017;-77
2023/04/12 10:01:21;;;;;;;2.80;2.60;;;15.80;54.30;;;;;;20577;6730;307144;-72
2023/04/12 10:03:57;;;;;;;3.60;2.40;;;16.30;53.40;;;;;;20688;6730;306370;-76
2023/04/12 10:06:33;;;;;;;1.80;1.70;;;16.30;53.60;;;;;;20888;6745;116984;-75
2023/04/12 10:09:08;;;;;;;1.93;1.83;;;16.30;53.60;;;;;;20852;6751;118012;-76
2023/04/12 10:11:45;;;;;;;3.03;2.20;;;16.10;53.40;;;;;;20782;6748;117934;-73
2023/04/12 10:14:20;;;;;;;2.80;1.37;;;15.90;54.00;;;;;;20851;6744;117436;-75
2023/04/12 10:17:01;;;;;;;1.80;1.40;;;15.80;53.90;;;;;;20825;6748;117932;-72
2023/04/12 10:19:37;;;;;;;2.67;2.00;;;15.70;53.90;;;;;;20460;6793;329247;-74
2023/04/12 10:22:16;;;;;;;1.60;1.50;;;16.00;51.60;;;;;;20623;6784;117541;-76
2023/04/12 10:24:51;;;;;;;2.57;1.77;;;16.10;52.10;;;;;;20718;6786;117337;-77
2023/04/12 10:27:26;;;;;;;3.80;3.60;;;16.00;51.80;;;;;;20722;6767;118197;-73
2023/04/12 10:30:34;;;;;;;2.17;1.98;;;16.10;50.80;;;;;;20580;6763;276551;-78
2023/04/12 10:33:11;;;;;;;2.63;2.43;;;16.10;50.80;;;;;;20413;6760;312636;-75
2023/04/12 10:36:02;;;;;;;4.10;3.80;;;16.50;49.50;;;;;;20861;6745;117523;-74
2023/04/12 10:38:48;;;;;;;2.97;1.80;;;16.20;50.50;;;;;;20887;6747;117671;-73
2023/04/12 10:41:23;;;;;;;2.43;2.23;;;16.20;50.50;;;;;;20579;6745;295369;-72
2023/04/12 10:44:02;;;;;;;1.67;1.57;;;16.40;49.60;;;;;;20850;6745;117053;-75
2023/04/12 10:46:44;;;;;;;1.80;1.70;;;16.40;50.40;;;;;;20736;6801;118970;-74
2023/04/12 10:49:19;;;;;;;1.70;1.60;;;16.30;51.30;;;;;;20796;6760;117396;-73
2023/04/12 10:52:09;;;;;;;1.80;1.30;;;16.20;51.10;;;;;;20742;6757;117661;-74
2023/04/12 10:54:44;;;;;;;1.50;1.37;;;16.10;51.10;;;;;;20829;6743;118145;-75
2023/04/12 10:57:39;;;;;;;1.60;1.50;;;16.00;50.60;;;;;;20651;6743;276400;-72
2023/04/12 11:00:15;;;;;;;1.55;1.33;;;16.30;49.80;;;;;;20663;6743;307068;-73
2023/04/12 11:03:10;;;;;;;1.50;1.40;;;16.80;48.90;;;;;;20684;6743;117950;-72
2023/04/12 11:05:56;;;;;;;1.50;1.40;;;17.00;49.40;;;;;;20608;6751;336084;-72
2023/04/12 11:08:31;;;;;;;1.50;1.40;;;17.20;48.00;;;;;;20585;6760;332241;-73
2023/04/12 11:11:07;;;;;;;1.97;1.40;;;17.60;47.50;;;;;;20601;6745;276626;-72
2023/04/12 11:13:42;;;;;;;1.58;1.48;;;17.80;46.90;;;;;;20530;6775;306465;-72
2023/04/12 11:16:18;;;;;;;1.50;1.40;;;18.10;46.30;;;;;;20758;6775;117925;-71
2023/04/12 11:18:54;;;;;;;1.30;1.20;;;17.90;47.20;;;;;;20751;6775;117041;-72
2023/04/12 11:21:29;;;;;;;1.23;1.20;;;17.60;47.70;;;;;;20696;6772;117831;-71
2023/04/12 11:24:07;;;;;;;1.70;1.60;;;17.30;47.90;;;;;;20673;6772;118093;-72
2023/04/12 11:26:40;;;;;;;1.20;1.10;;;17.10;49.50;;;;;;20591;6760;296434;-72
2023/04/12 11:29:16;;;;;;;1.10;1.00;;;17.30;47.10;;;;;;20793;6760;119088;-73
2023/04/12 11:31:51;;;;;;;1.50;1.40;;;17.30;47.60;;;;;;20768;6760;117667;-74
2023/04/12 11:34:27;;;;;;;1.10;1.10;;;17.20;48.30;;;;;;20588;6760;306718;-73
2023/04/12 11:37:09;;;;;;;1.20;1.10;;;17.40;46.80;;;;;;20565;6760;310768;-74
2023/04/12 11:39:41;;;;;;;2.20;1.50;;;17.80;46.30;;;;;;20580;6760;307147;-76
2023/04/12 11:42:17;;;;;;;1.57;1.10;;;18.10;45.60;;;;;;20689;6763;117392;-74
2023/04/12 11:44:52;;;;;;;1.10;1.00;;;18.10;46.40;;;;;;20794;6760;117274;-73
2023/04/12 11:47:28;;;;;;;1.57;0.83;;;17.90;47.00;;;;;;20788;6760;120735;-72
2023/04/12 11:50:04;;;;;;;0.80;0.70;;;17.70;47.60;;;;;;20793;6760;117365;-71
2023/04/12 11:52:40;;;;;;;1.00;0.90;;;17.60;47.30;;;;;;20465;6760;308382;-74
2023/04/12 11:55:16;;;;;;;1.10;1.00;;;18.00;44.60;;;;;;20565;6760;307035;-71
2023/04/12 11:57:55;;;;;;;1.00;1.00;;;18.00;44.60;;;;;;20577;6760;306131;-71
2023/04/12 12:00:31;;;;;;;1.27;1.17;;;18.60;44.60;;;;;;20574;6760;307012;-71
2023/04/12 12:03:07;;;;;;;1.30;1.20;;;18.50;44.80;;;;;;20401;6775;343793;-72
2023/04/12 12:05:42;;;;;;;0.70;0.70;;;18.80;43.50;;;;;;20842;6745;117447;-71
2023/04/12 12:08:18;;;;;;;0.70;0.70;;;18.60;44.20;;;;;;20759;6771;117823;-71
2023/04/12 12:10:53;;;;;;;1.13;0.93;;;18.30;45.10;;;;;;20805;6760;120858;-71
2023/04/12 12:13:48;;;;;;;1.20;0.70;;;17.60;46.70;;;;;;20820;6759;119012;-71
2023/04/12 12:16:24;;;;;;;1.53;0.90;;;17.60;46.00;;;;;;19706;7119;119945;-71
2023/04/12 12:18:59;;;;;;;2.20;0.60;;;17.40;46.20;;;;;;20530;6787;119297;-71
2023/04/12 12:21:34;;;;;;;0.60;0.60;;;17.20;46.90;;;;;;20777;6760;117287;-73
2023/04/12 12:24:10;;;;;;;0.77;0.77;;;17.10;47.30;;;;;;20746;6756;121435;-71
2023/04/12 12:26:46;;;;;;;1.47;0.70;;;17.10;47.90;;;;;;20765;6770;118859;-71
2023/04/12 12:29:23;;;;;;;1.13;0.87;;;17.10;47.90;;;;;;20663;6741;305829;-70
2023/04/12 12:31:57;;;;;;;0.80;0.80;;;17.40;46.80;;;;;;20818;6741;117057;-71
2023/04/12 12:34:33;;;;;;;0.60;0.60;;;17.70;47.80;;;;;;20886;6745;121288;-71
2023/04/12 12:37:09;;;;;;;1.13;0.70;;;17.80;47.90;;;;;;20877;6745;123340;-71
2023/04/12 12:40:06;;;;;;;1.73;0.70;;;17.90;47.90;;;;;;20840;6745;116977;-72
2023/04/12 12:42:44;;;;;;;0.90;0.90;;;17.90;47.20;;;;;;20486;6745;307708;-72
2023/04/12 12:45:20;;;;;;;1.50;0.90;;;18.50;45.80;;;;;;20853;6745;117995;-70
2023/04/12 12:48:02;;;;;;;2.20;0.80;;;18.40;46.30;;;;;;20646;6745;298278;-71
2023/04/12 12:50:38;;;;;;;1.90;0.80;;;18.70;43.20;;;;;;20877;6745;116881;-71
2023/04/12 12:53:14;;;;;;;0.70;0.70;;;18.80;43.10;;;;;;20484;6745;311837;-71
2023/04/12 12:55:50;;;;;;;1.20;0.80;;;18.80;43.20;;;;;;20792;6760;117237;-70
2023/04/12 12:58:25;;;;;;;1.40;0.60;;;18.70;43.40;;;;;;20709;6775;117091;-70
2023/04/12 13:01:01;;;;;;;0.65;0.65;;;18.40;44.00;;;;;;20566;6756;335433;-70
2023/04/12 13:03:37;;;;;;;0.70;0.70;;;18.70;43.20;;;;;;20564;6760;311369;-71
2023/04/12 13:06:13;;;;;;;1.20;0.50;;;18.60;43.10;;;;;;20802;6760;117542;-70
2023/04/12 13:08:48;;;;;;;0.60;0.60;;;18.60;43.90;;;;;;20789;6763;117512;-70
2023/04/12 13:11:25;;;;;;;1.70;0.77;;;18.50;43.10;;;;;;20555;6757;317699;-70
2023/04/12 13:14:00;;;;;;;0.60;0.60;;;18.40;43.00;;;;;;20816;6757;117697;-70
2023/04/12 13:16:36;;;;;;;1.03;0.60;;;18.40;44.20;;;;;;20827;6754;120021;-70
2023/04/12 13:19:12;;;;;;;1.20;0.80;;;18.50;43.20;;;;;;20587;6754;310839;-71
2023/04/12 13:21:48;;;;;;;0.93;0.60;;;18.40;43.10;;;;;;20728;6768;118011;-70
2023/04/12 13:24:23;;;;;;;0.40;0.40;;;18.40;43.60;;;;;;20812;6764;117227;-70
2023/04/12 13:26:59;;;;;;;0.87;0.60;;;18.10;44.40;;;;;;20806;6764;122514;-71